sensor_id;sensor_type;location;lat;lon;timestamp;temperature;humidity
22923;DHT22;11627;51.322;22.816;2023-02-24T00:02:13;4.30;22.30
22923;DHT22;11627;51.322;22.816;2023-02-24T00:04:48;3.90;22.20
22923;DHT22;11627;51.322;22.816;2023-02-24T00:07:18;4.00;19.80
22923;DHT22;11627;51.322;22.816;2023-02-24T00:09:44;4.00;20.50
22923;DHT22;11627;51.322;22.816;2023-02-24T00:12:16;4.00;19.40
22923;DHT22;11627;51.322;22.816;2023-02-24T00:14:46;4.00;22.20
22923;DHT22;11627;51.322;22.816;2023-02-24T00:17:13;4.00;19.70
22923;DHT22;11627;51.322;22.816;2023-02-24T00:19:40;4.10;19.30
22923;DHT22;11627;51.322;22.816;2023-02-24T00:22:17;4.10;20.10
22923;DHT22;11627;51.322;22.816;2023-02-24T00:24:49;4.10;18.80
22923;DHT22;11627;51.322;22.816;2023-02-24T00:27:15;4.10;21.20
22923;DHT22;11627;51.322;22.816;2023-02-24T00:29:44;4.10;19.60
22923;DHT22;11627;51.322;22.816;2023-02-24T00:32:11;4.00;23.40
22923;DHT22;11627;51.322;22.816;2023-02-24T00:34:40;4.10;21.90
22923;DHT22;11627;51.322;22.816;2023-02-24T00:37:09;4.00;24.90
22923;DHT22;11627;51.322;22.816;2023-02-24T00:39:39;4.10;23.10
22923;DHT22;11627;51.322;22.816;2023-02-24T00:42:10;4.10;25.70
22923;DHT22;11627;51.322;22.816;2023-02-24T00:44:42;4.20;22.80
22923;DHT22;11627;51.322;22.816;2023-02-24T00:47:10;4.10;24.90
22923;DHT22;11627;51.322;22.816;2023-02-24T00:49:39;4.10;21.80
22923;DHT22;11627;51.322;22.816;2023-02-24T00:52:15;4.10;24.20
22923;DHT22;11627;51.322;22.816;2023-02-24T00:54:49;4.10;25.30
22923;DHT22;11627;51.322;22.816;2023-02-24T00:57:17;4.20;25.70
22923;DHT22;11627;51.322;22.816;2023-02-24T00:59:48;4.20;27.20
22923;DHT22;11627;51.322;22.816;2023-02-24T01:02:19;4.20;25.20
22923;DHT22;11627;51.322;22.816;2023-02-24T01:04:45;4.20;25.20
22923;DHT22;11627;51.322;22.816;2023-02-24T01:07:10;4.20;27.60
22923;DHT22;11627;51.322;22.816;2023-02-24T01:09:40;4.20;28.20
22923;DHT22;11627;51.322;22.816;2023-02-24T01:12:15;4.20;28.30
22923;DHT22;11627;51.322;22.816;2023-02-24T01:14:50;4.20;26.40
22923;DHT22;11627;51.322;22.816;2023-02-24T01:17:19;4.20;28.10
22923;DHT22;11627;51.322;22.816;2023-02-24T01:19:48;4.30;27.30
22923;DHT22;11627;51.322;22.816;2023-02-24T01:22:17;4.20;27.30
22923;DHT22;11627;51.322;22.816;2023-02-24T01:24:45;4.20;26.90
22923;DHT22;11627;51.322;22.816;2023-02-24T01:27:12;5.10;28.30
22923;DHT22;11627;51.322;22.816;2023-02-24T01:29:41;4.20;30.30
22923;DHT22;11627;51.322;22.816;2023-02-24T01:32:14;4.20;31.90
22923;DHT22;11627;51.322;22.816;2023-02-24T01:34:41;4.20;33.30
22923;DHT22;11627;51.322;22.816;2023-02-24T01:37:13;4.20;36.10
22923;DHT22;11627;51.322;22.816;2023-02-24T01:39:46;4.20;36.80
22923;DHT22;11627;51.322;22.816;2023-02-24T01:42:15;4.30;34.60
22923;DHT22;11627;51.322;22.816;2023-02-24T01:47:25;4.30;37.20
22923;DHT22;11627;51.322;22.816;2023-02-24T01:49:56;4.30;37.80
22923;DHT22;11627;51.322;22.816;2023-02-24T01:52:42;4.40;35.80
22923;DHT22;11627;51.322;22.816;2023-02-24T01:55:32;4.40;32.20
22923;DHT22;11627;51.322;22.816;2023-02-24T01:58:05;4.30;34.60
22923;DHT22;11627;51.322;22.816;2023-02-24T02:00:33;4.30;33.90
22923;DHT22;11627;51.322;22.816;2023-02-24T02:03:17;4.40;33.80
22923;DHT22;11627;51.322;22.816;2023-02-24T02:06:13;4.30;37.70
22923;DHT22;11627;51.322;22.816;2023-02-24T02:08:47;4.40;36.40
22923;DHT22;11627;51.322;22.816;2023-02-24T02:11:14;4.30;37.60
22923;DHT22;11627;51.322;22.816;2023-02-24T02:13:49;4.30;38.40
22923;DHT22;11627;51.322;22.816;2023-02-24T02:16:40;4.30;41.10
22923;DHT22;11627;51.322;22.816;2023-02-24T02:25:04;4.30;44.10
22923;DHT22;11627;51.322;22.816;2023-02-24T02:34:12;4.40;41.80
22923;DHT22;11627;51.322;22.816;2023-02-24T02:37:15;4.40;41.30
22923;DHT22;11627;51.322;22.816;2023-02-24T02:42:39;4.40;45.60
22923;DHT22;11627;51.322;22.816;2023-02-24T02:48:30;4.40;45.20
22923;DHT22;11627;51.322;22.816;2023-02-24T02:51:20;4.50;43.80
22923;DHT22;11627;51.322;22.816;2023-02-24T02:54:32;4.50;44.00
22923;DHT22;11627;51.322;22.816;2023-02-24T02:57:08;4.50;45.10
22923;DHT22;11627;51.322;22.816;2023-02-24T02:59:46;4.50;46.90
22923;DHT22;11627;51.322;22.816;2023-02-24T03:02:18;4.50;46.20
22923;DHT22;11627;51.322;22.816;2023-02-24T03:04:51;4.50;49.70
22923;DHT22;11627;51.322;22.816;2023-02-24T03:07:22;4.50;52.30
22923;DHT22;11627;51.322;22.816;2023-02-24T03:10:04;4.50;54.80
22923;DHT22;11627;51.322;22.816;2023-02-24T03:12:37;4.50;54.70
22923;DHT22;11627;51.322;22.816;2023-02-24T03:15:09;4.50;52.90
22923;DHT22;11627;51.322;22.816;2023-02-24T03:17:54;4.50;53.60
22923;DHT22;11627;51.322;22.816;2023-02-24T03:20:38;4.50;50.80
22923;DHT22;11627;51.322;22.816;2023-02-24T03:23:19;4.50;54.20
22923;DHT22;11627;51.322;22.816;2023-02-24T03:29:28;4.60;50.30
22923;DHT22;11627;51.322;22.816;2023-02-24T03:37:29;4.60;49.00
22923;DHT22;11627;51.322;22.816;2023-02-24T03:40:03;4.70;42.60
22923;DHT22;11627;51.322;22.816;2023-02-24T03:42:38;4.80;46.30
22923;DHT22;11627;51.322;22.816;2023-02-24T03:45:07;4.70;43.80
22923;DHT22;11627;51.322;22.816;2023-02-24T03:47:39;4.80;45.00
22923;DHT22;11627;51.322;22.816;2023-02-24T03:50:20;4.80;44.30
22923;DHT22;11627;51.322;22.816;2023-02-24T03:55:54;4.80;42.90
22923;DHT22;11627;51.322;22.816;2023-02-24T04:04:43;4.90;40.50
22923;DHT22;11627;51.322;22.816;2023-02-24T04:10:17;5.10;36.80
22923;DHT22;11627;51.322;22.816;2023-02-24T04:16:23;5.10;36.20
22923;DHT22;11627;51.322;22.816;2023-02-24T04:19:16;5.10;40.60
22923;DHT22;11627;51.322;22.816;2023-02-24T04:21:47;5.10;38.00
22923;DHT22;11627;51.322;22.816;2023-02-24T04:24:27;5.10;39.00
22923;DHT22;11627;51.322;22.816;2023-02-24T04:27:01;5.10;39.40
22923;DHT22;11627;51.322;22.816;2023-02-24T04:29:32;5.10;40.00
22923;DHT22;11627;51.322;22.816;2023-02-24T04:32:07;5.20;38.10
22923;DHT22;11627;51.322;22.816;2023-02-24T04:34:37;5.10;40.10
22923;DHT22;11627;51.322;22.816;2023-02-24T04:37:05;5.20;40.10
22923;DHT22;11627;51.322;22.816;2023-02-24T04:39:32;5.20;38.70
22923;DHT22;11627;51.322;22.816;2023-02-24T04:42:06;5.20;40.10
22923;DHT22;11627;51.322;22.816;2023-02-24T04:44:34;5.20;40.20
22923;DHT22;11627;51.322;22.816;2023-02-24T04:47:02;5.20;39.20
22923;DHT22;11627;51.322;22.816;2023-02-24T04:49:29;5.20;38.90
22923;DHT22;11627;51.322;22.816;2023-02-24T04:51:56;5.30;38.40
22923;DHT22;11627;51.322;22.816;2023-02-24T04:54:25;5.30;38.00
22923;DHT22;11627;51.322;22.816;2023-02-24T04:56:55;5.30;33.70
22923;DHT22;11627;51.322;22.816;2023-02-24T04:59:23;5.40;33.10
22923;DHT22;11627;51.322;22.816;2023-02-24T05:01:50;5.40;32.90
22923;DHT22;11627;51.322;22.816;2023-02-24T05:04:20;5.40;31.00
22923;DHT22;11627;51.322;22.816;2023-02-24T05:06:58;5.40;31.30
22923;DHT22;11627;51.322;22.816;2023-02-24T05:09:30;5.50;30.30
22923;DHT22;11627;51.322;22.816;2023-02-24T05:11:57;5.50;31.30
22923;DHT22;11627;51.322;22.816;2023-02-24T05:14:26;5.50;29.20
22923;DHT22;11627;51.322;22.816;2023-02-24T05:16:53;5.50;28.40
22923;DHT22;11627;51.322;22.816;2023-02-24T05:19:25;5.50;26.30
22923;DHT22;11627;51.322;22.816;2023-02-24T05:22:12;5.50;28.60
22923;DHT22;11627;51.322;22.816;2023-02-24T05:24:43;5.60;28.20
22923;DHT22;11627;51.322;22.816;2023-02-24T05:27:14;5.60;28.40
22923;DHT22;11627;51.322;22.816;2023-02-24T05:29:42;5.50;27.90
22923;DHT22;11627;51.322;22.816;2023-02-24T05:32:08;5.50;28.50
22923;DHT22;11627;51.322;22.816;2023-02-24T05:34:37;5.60;26.60
22923;DHT22;11627;51.322;22.816;2023-02-24T05:37:03;5.60;28.00
22923;DHT22;11627;51.322;22.816;2023-02-24T05:39:36;5.60;27.70
22923;DHT22;11627;51.322;22.816;2023-02-24T05:42:05;5.80;28.70
22923;DHT22;11627;51.322;22.816;2023-02-24T05:44:34;5.60;28.70
22923;DHT22;11627;51.322;22.816;2023-02-24T05:47:02;5.50;26.80
22923;DHT22;11627;51.322;22.816;2023-02-24T05:49:41;5.60;26.60
22923;DHT22;11627;51.322;22.816;2023-02-24T05:52:10;5.60;25.40
22923;DHT22;11627;51.322;22.816;2023-02-24T05:54:40;5.60;27.40
22923;DHT22;11627;51.322;22.816;2023-02-24T05:57:09;5.60;29.50
22923;DHT22;11627;51.322;22.816;2023-02-24T05:59:39;5.60;28.00
22923;DHT22;11627;51.322;22.816;2023-02-24T06:02:11;5.70;27.10
22923;DHT22;11627;51.322;22.816;2023-02-24T06:04:51;5.60;26.20
22923;DHT22;11627;51.322;22.816;2023-02-24T06:07:28;5.70;26.30
22923;DHT22;11627;51.322;22.816;2023-02-24T06:10:00;5.70;26.80
22923;DHT22;11627;51.322;22.816;2023-02-24T06:12:33;5.80;23.90
22923;DHT22;11627;51.322;22.816;2023-02-24T06:15:00;5.70;25.20
22923;DHT22;11627;51.322;22.816;2023-02-24T06:17:31;5.40;24.20
22923;DHT22;11627;51.322;22.816;2023-02-24T06:19:59;5.80;24.60
22923;DHT22;11627;51.322;22.816;2023-02-24T06:22:26;5.80;21.50
22923;DHT22;11627;51.322;22.816;2023-02-24T06:24:55;5.80;25.00
22923;DHT22;11627;51.322;22.816;2023-02-24T06:27:23;5.80;25.90
22923;DHT22;11627;51.322;22.816;2023-02-24T06:30:02;5.80;25.70
22923;DHT22;11627;51.322;22.816;2023-02-24T06:32:29;5.80;25.20
22923;DHT22;11627;51.322;22.816;2023-02-24T06:34:56;5.80;23.60
22923;DHT22;11627;51.322;22.816;2023-02-24T06:37:26;5.90;25.20
22923;DHT22;11627;51.322;22.816;2023-02-24T06:39:58;5.90;24.40
22923;DHT22;11627;51.322;22.816;2023-02-24T06:42:26;5.90;22.90
22923;DHT22;11627;51.322;22.816;2023-02-24T06:44:54;6.00;20.40
22923;DHT22;11627;51.322;22.816;2023-02-24T06:47:21;5.90;23.40
22923;DHT22;11627;51.322;22.816;2023-02-24T06:49:47;5.90;23.90
22923;DHT22;11627;51.322;22.816;2023-02-24T06:52:16;6.00;22.60
22923;DHT22;11627;51.322;22.816;2023-02-24T06:54:47;6.00;20.00
22923;DHT22;11627;51.322;22.816;2023-02-24T06:57:20;6.10;17.10
22923;DHT22;11627;51.322;22.816;2023-02-24T06:59:49;6.10;17.40
22923;DHT22;11627;51.322;22.816;2023-02-24T07:02:17;6.10;17.20
22923;DHT22;11627;51.322;22.816;2023-02-24T07:04:45;6.20;14.10
22923;DHT22;11627;51.322;22.816;2023-02-24T07:07:14;6.20;11.70
22923;DHT22;11627;51.322;22.816;2023-02-24T07:09:45;6.20;10.10
22923;DHT22;11627;51.322;22.816;2023-02-24T07:12:13;6.30;12.50
22923;DHT22;11627;51.322;22.816;2023-02-24T07:14:48;6.30;12.60
22923;DHT22;11627;51.322;22.816;2023-02-24T07:17:16;6.30;7.70
22923;DHT22;11627;51.322;22.816;2023-02-24T07:19:45;6.40;6.50
22923;DHT22;11627;51.322;22.816;2023-02-24T07:22:12;6.40;7.30
22923;DHT22;11627;51.322;22.816;2023-02-24T07:24:42;6.50;4.10
22923;DHT22;11627;51.322;22.816;2023-02-24T07:27:16;6.50;6.40
22923;DHT22;11627;51.322;22.816;2023-02-24T07:29:54;6.50;2.60
22923;DHT22;11627;51.322;22.816;2023-02-24T07:32:26;6.50;1.00
22923;DHT22;11627;51.322;22.816;2023-02-24T07:34:52;6.60;2.00
22923;DHT22;11627;51.322;22.816;2023-02-24T07:37:20;6.60;2.60
22923;DHT22;11627;51.322;22.816;2023-02-24T07:39:50;6.70;1.80
22923;DHT22;11627;51.322;22.816;2023-02-24T07:42:17;6.70;1.00
22923;DHT22;11627;51.322;22.816;2023-02-24T07:44:43;6.80;1.00
22923;DHT22;11627;51.322;22.816;2023-02-24T07:47:14;6.70;4.20
22923;DHT22;11627;51.322;22.816;2023-02-24T07:49:43;6.80;4.30
22923;DHT22;11627;51.322;22.816;2023-02-24T07:52:11;6.80;1.00
22923;DHT22;11627;51.322;22.816;2023-02-24T07:54:38;6.80;1.00
22923;DHT22;11627;51.322;22.816;2023-02-24T07:57:06;6.80;1.00
22923;DHT22;11627;51.322;22.816;2023-02-24T07:59:40;6.80;3.70
22923;DHT22;11627;51.322;22.816;2023-02-24T08:02:20;6.80;2.10
22923;DHT22;11627;51.322;22.816;2023-02-24T08:04:50;6.80;1.20
22923;DHT22;11627;51.322;22.816;2023-02-24T08:07:18;6.90;5.90
22923;DHT22;11627;51.322;22.816;2023-02-24T08:09:51;6.80;10.20
22923;DHT22;11627;51.322;22.816;2023-02-24T08:12:38;6.90;11.40
22923;DHT22;11627;51.322;22.816;2023-02-24T08:15:12;6.90;8.10
22923;DHT22;11627;51.322;22.816;2023-02-24T08:17:56;6.90;15.00
22923;DHT22;11627;51.322;22.816;2023-02-24T08:20:29;6.90;21.00
22923;DHT22;11627;51.322;22.816;2023-02-24T08:23:23;6.90;18.70
22923;DHT22;11627;51.322;22.816;2023-02-24T08:25:51;6.90;20.90
22923;DHT22;11627;51.322;22.816;2023-02-24T08:28:20;6.90;21.40
22923;DHT22;11627;51.322;22.816;2023-02-24T08:30:52;7.00;22.80
22923;DHT22;11627;51.322;22.816;2023-02-24T08:33:31;7.00;23.70
22923;DHT22;11627;51.322;22.816;2023-02-24T08:35:58;7.00;25.50
22923;DHT22;11627;51.322;22.816;2023-02-24T08:38:34;7.00;23.50
22923;DHT22;11627;51.322;22.816;2023-02-24T08:41:16;7.00;30.10
22923;DHT22;11627;51.322;22.816;2023-02-24T08:43:43;7.00;30.30
22923;DHT22;11627;51.322;22.816;2023-02-24T08:46:15;7.00;30.40
22923;DHT22;11627;51.322;22.816;2023-02-24T08:48:53;7.00;26.80
22923;DHT22;11627;51.322;22.816;2023-02-24T08:51:40;7.00;31.80
22923;DHT22;11627;51.322;22.816;2023-02-24T08:54:27;7.00;39.80
22923;DHT22;11627;51.322;22.816;2023-02-24T08:57:16;7.00;38.90
22923;DHT22;11627;51.322;22.816;2023-02-24T09:00:03;7.00;40.70
22923;DHT22;11627;51.322;22.816;2023-02-24T09:02:38;7.00;42.40
22923;DHT22;11627;51.322;22.816;2023-02-24T09:05:08;7.00;41.10
22923;DHT22;11627;51.322;22.816;2023-02-24T09:07:37;7.00;48.50
22923;DHT22;11627;51.322;22.816;2023-02-24T09:10:11;7.00;47.20
22923;DHT22;11627;51.322;22.816;2023-02-24T09:12:42;7.00;49.70
22923;DHT22;11627;51.322;22.816;2023-02-24T09:15:10;7.00;57.20
22923;DHT22;11627;51.322;22.816;2023-02-24T09:17:36;7.00;55.80
22923;DHT22;11627;51.322;22.816;2023-02-24T09:20:10;7.00;59.30
22923;DHT22;11627;51.322;22.816;2023-02-24T09:22:56;6.90;64.30
22923;DHT22;11627;51.322;22.816;2023-02-24T09:25:25;6.90;70.60
22923;DHT22;11627;51.322;22.816;2023-02-24T09:28:23;7.00;71.30
22923;DHT22;11627;51.322;22.816;2023-02-24T09:33:29;7.00;73.50
22923;DHT22;11627;51.322;22.816;2023-02-24T09:36:09;6.90;78.30
22923;DHT22;11627;51.322;22.816;2023-02-24T09:38:52;7.00;79.30
22923;DHT22;11627;51.322;22.816;2023-02-24T09:41:47;7.00;85.30
22923;DHT22;11627;51.322;22.816;2023-02-24T09:44:47;6.90;93.60
22923;DHT22;11627;51.322;22.816;2023-02-24T09:47:37;6.80;95.60
22923;DHT22;11627;51.322;22.816;2023-02-24T09:50:31;6.80;96.50
22923;DHT22;11627;51.322;22.816;2023-02-24T09:53:29;6.80;99.90
22923;DHT22;11627;51.322;22.816;2023-02-24T09:56:16;6.70;99.90
22923;DHT22;11627;51.322;22.816;2023-02-24T09:59:11;6.60;99.90
22923;DHT22;11627;51.322;22.816;2023-02-24T10:05:03;6.50;99.90
22923;DHT22;11627;51.322;22.816;2023-02-24T10:07:41;6.50;99.90
22923;DHT22;11627;51.322;22.816;2023-02-24T10:10:29;6.50;99.90
22923;DHT22;11627;51.322;22.816;2023-02-24T10:13:15;6.50;99.90
22923;DHT22;11627;51.322;22.816;2023-02-24T10:16:05;6.50;99.90
22923;DHT22;11627;51.322;22.816;2023-02-24T10:18:56;6.50;99.90
22923;DHT22;11627;51.322;22.816;2023-02-24T10:22:02;6.40;99.90
22923;DHT22;11627;51.322;22.816;2023-02-24T10:24:40;6.40;99.90
22923;DHT22;11627;51.322;22.816;2023-02-24T10:27:26;6.30;99.90
22923;DHT22;11627;51.322;22.816;2023-02-24T10:33:19;6.30;99.90
22923;DHT22;11627;51.322;22.816;2023-02-24T10:35:45;6.30;99.90
22923;DHT22;11627;51.322;22.816;2023-02-24T10:38:11;6.30;99.90
22923;DHT22;11627;51.322;22.816;2023-02-24T10:40:54;6.30;99.90
22923;DHT22;11627;51.322;22.816;2023-02-24T10:43:25;6.30;99.90
22923;DHT22;11627;51.322;22.816;2023-02-24T10:45:58;6.30;99.90
22923;DHT22;11627;51.322;22.816;2023-02-24T10:49:00;6.30;99.90
22923;DHT22;11627;51.322;22.816;2023-02-24T10:51:35;6.30;99.90
22923;DHT22;11627;51.322;22.816;2023-02-24T10:54:35;6.40;99.90
22923;DHT22;11627;51.322;22.816;2023-02-24T10:57:30;6.20;99.90
22923;DHT22;11627;51.322;22.816;2023-02-24T11:00:13;6.30;99.90
22923;DHT22;11627;51.322;22.816;2023-02-24T11:02:51;6.20;99.90
22923;DHT22;11627;51.322;22.816;2023-02-24T11:05:44;6.20;99.90
22923;DHT22;11627;51.322;22.816;2023-02-24T11:08:35;6.20;99.90
22923;DHT22;11627;51.322;22.816;2023-02-24T11:13:50;6.20;99.90
22923;DHT22;11627;51.322;22.816;2023-02-24T11:17:01;6.20;99.90
22923;DHT22;11627;51.322;22.816;2023-02-24T11:19:42;6.30;99.90
22923;DHT22;11627;51.322;22.816;2023-02-24T11:22:15;6.30;99.90
22923;DHT22;11627;51.322;22.816;2023-02-24T11:24:44;6.20;99.90
22923;DHT22;11627;51.322;22.816;2023-02-24T11:27:10;6.20;99.90
22923;DHT22;11627;51.322;22.816;2023-02-24T11:32:52;6.20;99.90
22923;DHT22;11627;51.322;22.816;2023-02-24T11:40:47;6.20;99.90
22923;DHT22;11627;51.322;22.816;2023-02-24T11:43:22;6.20;99.90
22923;DHT22;11627;51.322;22.816;2023-02-24T11:46:06;6.20;99.90
22923;DHT22;11627;51.322;22.816;2023-02-24T11:48:47;6.20;99.90
22923;DHT22;11627;51.322;22.816;2023-02-24T11:51:27;6.20;99.90
22923;DHT22;11627;51.322;22.816;2023-02-24T11:54:13;6.30;99.90
22923;DHT22;11627;51.322;22.816;2023-02-24T12:02:38;6.20;99.90
22923;DHT22;11627;51.322;22.816;2023-02-24T12:07:41;6.30;99.90
22923;DHT22;11627;51.322;22.816;2023-02-24T12:10:18;6.20;99.90
22923;DHT22;11627;51.322;22.816;2023-02-24T12:16:02;6.30;99.90
22923;DHT22;11627;51.322;22.816;2023-02-24T12:18:36;6.30;99.90
22923;DHT22;11627;51.322;22.816;2023-02-24T12:21:26;6.30;99.90
22923;DHT22;11627;51.322;22.816;2023-02-24T12:23:58;6.30;99.90
22923;DHT22;11627;51.322;22.816;2023-02-24T12:26:39;6.30;99.90
22923;DHT22;11627;51.322;22.816;2023-02-24T12:38:27;6.30;99.90
22923;DHT22;11627;51.322;22.816;2023-02-24T12:43:46;6.30;99.90
22923;DHT22;11627;51.322;22.816;2023-02-24T12:46:35;6.30;99.90
22923;DHT22;11627;51.322;22.816;2023-02-24T12:55:00;6.40;99.90
22923;DHT22;11627;51.322;22.816;2023-02-24T12:58:02;6.30;99.90
22923;DHT22;11627;51.322;22.816;2023-02-24T13:09:26;6.30;99.90
22923;DHT22;11627;51.322;22.816;2023-02-24T13:14:37;6.30;99.90
22923;DHT22;11627;51.322;22.816;2023-02-24T13:19:41;6.20;99.90
22923;DHT22;11627;51.322;22.816;2023-02-24T13:27:35;6.20;99.90
22923;DHT22;11627;51.322;22.816;2023-02-24T13:30:28;6.20;99.90
22923;DHT22;11627;51.322;22.816;2023-02-24T13:36:03;6.20;99.90
22923;DHT22;11627;51.322;22.816;2023-02-24T13:38:46;6.20;99.90
22923;DHT22;11627;51.322;22.816;2023-02-24T13:46:40;6.20;99.90
22923;DHT22;11627;51.322;22.816;2023-02-24T13:52:01;6.20;99.90
22923;DHT22;11627;51.322;22.816;2023-02-24T13:54:40;6.20;99.90
22923;DHT22;11627;51.322;22.816;2023-02-24T14:00:27;6.30;99.90
22923;DHT22;11627;51.322;22.816;2023-02-24T14:02:56;6.30;99.90
22923;DHT22;11627;51.322;22.816;2023-02-24T14:05:38;6.30;99.90
22923;DHT22;11627;51.322;22.816;2023-02-24T14:08:06;6.30;99.90
22923;DHT22;11627;51.322;22.816;2023-02-24T14:10:35;6.30;99.90
22923;DHT22;11627;51.322;22.816;2023-02-24T14:13:15;6.30;99.90
22923;DHT22;11627;51.322;22.816;2023-02-24T14:15:47;6.30;99.90
22923;DHT22;11627;51.322;22.816;2023-02-24T14:18:21;6.30;99.90
22923;DHT22;11627;51.322;22.816;2023-02-24T14:20:50;6.30;99.90
22923;DHT22;11627;51.322;22.816;2023-02-24T14:26:12;6.30;99.90
22923;DHT22;11627;51.322;22.816;2023-02-24T14:28:43;6.30;99.90
22923;DHT22;11627;51.322;22.816;2023-02-24T14:31:14;6.30;99.90
22923;DHT22;11627;51.322;22.816;2023-02-24T14:33:43;6.30;99.90
22923;DHT22;11627;51.322;22.816;2023-02-24T14:36:16;6.40;99.90
22923;DHT22;11627;51.322;22.816;2023-02-24T14:38:45;6.30;99.90
22923;DHT22;11627;51.322;22.816;2023-02-24T14:41:20;6.30;99.90
22923;DHT22;11627;51.322;22.816;2023-02-24T14:43:48;6.30;99.90
22923;DHT22;11627;51.322;22.816;2023-02-24T14:46:13;6.40;99.90
22923;DHT22;11627;51.322;22.816;2023-02-24T14:48:43;6.40;99.90
22923;DHT22;11627;51.322;22.816;2023-02-24T14:51:18;6.40;99.90
22923;DHT22;11627;51.322;22.816;2023-02-24T14:53:57;6.40;99.90
22923;DHT22;11627;51.322;22.816;2023-02-24T14:56:37;6.40;99.90
22923;DHT22;11627;51.322;22.816;2023-02-24T14:59:14;6.30;99.90
22923;DHT22;11627;51.322;22.816;2023-02-24T15:01:47;6.40;99.90
22923;DHT22;11627;51.322;22.816;2023-02-24T15:04:25;6.40;99.90
22923;DHT22;11627;51.322;22.816;2023-02-24T15:06:58;6.40;99.90
22923;DHT22;11627;51.322;22.816;2023-02-24T15:09:39;6.40;99.90
22923;DHT22;11627;51.322;22.816;2023-02-24T15:15:29;6.30;99.90
22923;DHT22;11627;51.322;22.816;2023-02-24T15:18:09;6.30;99.90
22923;DHT22;11627;51.322;22.816;2023-02-24T15:20:40;6.30;99.90
22923;DHT22;11627;51.322;22.816;2023-02-24T15:23:24;6.40;99.90
22923;DHT22;11627;51.322;22.816;2023-02-24T15:25:52;6.30;99.90
22923;DHT22;11627;51.322;22.816;2023-02-24T15:28:34;6.30;99.90
22923;DHT22;11627;51.322;22.816;2023-02-24T15:31:18;6.30;99.90
22923;DHT22;11627;51.322;22.816;2023-02-24T15:34:00;6.30;99.90
22923;DHT22;11627;51.322;22.816;2023-02-24T15:36:31;6.40;99.90
22923;DHT22;11627;51.322;22.816;2023-02-24T15:39:20;6.30;99.90
22923;DHT22;11627;51.322;22.816;2023-02-24T15:41:50;6.30;99.90
22923;DHT22;11627;51.322;22.816;2023-02-24T15:44:33;6.30;99.90
22923;DHT22;11627;51.322;22.816;2023-02-24T15:47:23;6.30;99.90
22923;DHT22;11627;51.322;22.816;2023-02-24T15:49:58;6.30;99.90
22923;DHT22;11627;51.322;22.816;2023-02-24T15:52:32;6.30;99.90
22923;DHT22;11627;51.322;22.816;2023-02-24T15:55:03;6.30;99.90
22923;DHT22;11627;51.322;22.816;2023-02-24T15:57:32;6.30;99.90
22923;DHT22;11627;51.322;22.816;2023-02-24T16:00:01;6.30;99.90
22923;DHT22;11627;51.322;22.816;2023-02-24T16:02:29;6.30;99.90
22923;DHT22;11627;51.322;22.816;2023-02-24T16:04:57;6.30;99.90
22923;DHT22;11627;51.322;22.816;2023-02-24T16:07:43;6.30;99.90
22923;DHT22;11627;51.322;22.816;2023-02-24T16:10:18;6.30;99.90
22923;DHT22;11627;51.322;22.816;2023-02-24T16:12:58;6.30;99.90
22923;DHT22;11627;51.322;22.816;2023-02-24T16:15:33;6.30;99.90
22923;DHT22;11627;51.322;22.816;2023-02-24T16:18:03;6.30;99.90
22923;DHT22;11627;51.322;22.816;2023-02-24T16:20:31;6.30;99.90
22923;DHT22;11627;51.322;22.816;2023-02-24T16:23:01;6.30;99.90
22923;DHT22;11627;51.322;22.816;2023-02-24T16:25:41;6.30;99.90
22923;DHT22;11627;51.322;22.816;2023-02-24T16:28:19;6.20;99.90
22923;DHT22;11627;51.322;22.816;2023-02-24T16:30:45;6.20;99.90
22923;DHT22;11627;51.322;22.816;2023-02-24T16:33:14;6.20;99.90
22923;DHT22;11627;51.322;22.816;2023-02-24T16:35:46;6.30;99.90
22923;DHT22;11627;51.322;22.816;2023-02-24T16:38:16;6.30;99.90
22923;DHT22;11627;51.322;22.816;2023-02-24T16:40:45;6.30;99.90
22923;DHT22;11627;51.322;22.816;2023-02-24T16:43:11;6.30;99.90
22923;DHT22;11627;51.322;22.816;2023-02-24T16:45:52;6.30;99.90
22923;DHT22;11627;51.322;22.816;2023-02-24T16:48:24;6.40;99.90
22923;DHT22;11627;51.322;22.816;2023-02-24T16:50:53;6.40;99.90
22923;DHT22;11627;51.322;22.816;2023-02-24T16:53:21;6.30;99.90
22923;DHT22;11627;51.322;22.816;2023-02-24T16:55:49;6.30;99.90
22923;DHT22;11627;51.322;22.816;2023-02-24T16:58:15;6.20;99.90
22923;DHT22;11627;51.322;22.816;2023-02-24T17:00:49;6.20;99.90
22923;DHT22;11627;51.322;22.816;2023-02-24T17:03:49;6.10;99.90
22923;DHT22;11627;51.322;22.816;2023-02-24T17:06:16;6.10;99.90
22923;DHT22;11627;51.322;22.816;2023-02-24T17:08:46;6.00;99.90
22923;DHT22;11627;51.322;22.816;2023-02-24T17:11:15;6.90;99.90
22923;DHT22;11627;51.322;22.816;2023-02-24T17:13:43;6.00;99.90
22923;DHT22;11627;51.322;22.816;2023-02-24T17:16:09;6.00;99.90
22923;DHT22;11627;51.322;22.816;2023-02-24T17:18:38;5.90;99.90
22923;DHT22;11627;51.322;22.816;2023-02-24T17:21:08;5.90;99.90
22923;DHT22;11627;51.322;22.816;2023-02-24T17:23:37;5.90;99.90
22923;DHT22;11627;51.322;22.816;2023-02-24T17:26:05;5.90;99.90
22923;DHT22;11627;51.322;22.816;2023-02-24T17:28:35;5.80;99.90
22923;DHT22;11627;51.322;22.816;2023-02-24T17:31:12;5.90;99.90
22923;DHT22;11627;51.322;22.816;2023-02-24T17:33:40;5.90;99.90
22923;DHT22;11627;51.322;22.816;2023-02-24T17:36:09;5.90;99.90
22923;DHT22;11627;51.322;22.816;2023-02-24T17:38:37;5.90;99.90
22923;DHT22;11627;51.322;22.816;2023-02-24T17:41:04;5.90;99.90
22923;DHT22;11627;51.322;22.816;2023-02-24T17:43:31;6.00;99.90
22923;DHT22;11627;51.322;22.816;2023-02-24T17:46:01;6.00;99.90
22923;DHT22;11627;51.322;22.816;2023-02-24T17:48:28;6.00;99.90
22923;DHT22;11627;51.322;22.816;2023-02-24T17:50:56;6.00;99.90
22923;DHT22;11627;51.322;22.816;2023-02-24T17:53:22;6.10;99.90
22923;DHT22;11627;51.322;22.816;2023-02-24T17:55:49;6.10;99.90
22923;DHT22;11627;51.322;22.816;2023-02-24T17:58:16;6.10;99.90
22923;DHT22;11627;51.322;22.816;2023-02-24T18:00:43;6.10;99.90
22923;DHT22;11627;51.322;22.816;2023-02-24T18:03:09;6.10;99.90
22923;DHT22;11627;51.322;22.816;2023-02-24T18:05:37;6.20;99.90
22923;DHT22;11627;51.322;22.816;2023-02-24T18:08:05;6.20;99.90
22923;DHT22;11627;51.322;22.816;2023-02-24T18:10:32;6.20;99.90
22923;DHT22;11627;51.322;22.816;2023-02-24T18:13:00;6.20;99.90
22923;DHT22;11627;51.322;22.816;2023-02-24T18:15:27;6.20;99.90
22923;DHT22;11627;51.322;22.816;2023-02-24T18:17:55;6.20;99.90
22923;DHT22;11627;51.322;22.816;2023-02-24T18:20:22;6.20;99.90
22923;DHT22;11627;51.322;22.816;2023-02-24T18:22:50;6.20;99.90
22923;DHT22;11627;51.322;22.816;2023-02-24T18:25:20;6.20;99.90
22923;DHT22;11627;51.322;22.816;2023-02-24T18:27:47;6.20;99.90
22923;DHT22;11627;51.322;22.816;2023-02-24T18:30:13;6.20;99.90
22923;DHT22;11627;51.322;22.816;2023-02-24T18:32:43;6.20;99.90